Time;durP1;ratioP1;P1;durP2;ratioP2;P2;SDS_P1;SDS_P2;PMS_P1;PMS_P2;Temp;Humidity;BMP_temperature;BMP_pressure;BME280_temperature;BME280_humidity;BME280_pressure;Samples;Min_cycle;Max_cycle;Signal;HPM_P1;HPM_P2
2022/08/24 00:00:16;;;;;;;2.17;1.98;;;;;;;-144.47;100.00;61586.06;5013608;28;20037;-86
2022/08/24 00:02:42;;;;;;;;;;;;;;;-144.47;100.00;61586.06;5001075;28;20037;-88
2022/08/24 00:05:09;;;;;;;2.75;1.90;;;;;;;22.56;100.00;61586.06;5021400;28;19921;-88
2022/08/24 00:07:35;;;;;;;3.60;1.88;;;;;;;-144.47;100.00;61586.06;5023367;28;20112;-87
2022/08/24 00:10:03;;;;;;;2.28;2.00;;;;;;;-144.47;100.00;61586.06;5029560;28;20034;-87
2022/08/24 00:12:31;;;;;;;3.75;2.22;;;;;;;22.40;100.00;61586.06;5028201;28;20525;-86
2022/08/24 00:14:57;;;;;;;3.53;1.88;;;;;;;-144.47;100.00;61586.06;5028494;28;20042;-87
2022/08/24 00:17:24;;;;;;;1.52;1.42;;;;;;;-144.47;100.00;61586.06;5018481;28;20044;-87
2022/08/24 00:19:50;;;;;;;6.15;2.30;;;;;;;-144.47;100.00;61586.06;5019867;28;20034;-87
2022/08/24 00:22:15;;;;;;;3.28;2.05;;;;;;;187.31;100.00;61586.06;5014731;28;20044;-87
2022/08/24 00:24:41;;;;;;;2.00;1.90;;;;;;;-144.47;100.00;61586.06;5003470;28;20124;-87
2022/08/24 00:27:07;;;;;;;2.13;1.80;;;;;;;187.31;100.00;61586.06;5025029;28;20545;-86
2022/08/24 00:29:33;;;;;;;1.80;1.70;;;;;;;21.53;100.00;61586.06;5016106;28;20022;-87
2022/08/24 00:31:59;;;;;;;2.88;2.28;;;;;;;104.25;100.00;61586.06;5021343;28;20042;-87
2022/08/24 00:34:26;;;;;;;2.97;1.98;;;;;;;104.25;100.00;61586.06;5010500;28;20060;-88
2022/08/24 00:36:53;;;;;;;2.25;2.05;;;;;;;187.31;100.00;61586.06;5029095;28;20038;-87
2022/08/24 00:39:20;;;;;;;3.35;2.25;;;;;;;104.25;100.00;61586.06;5023088;28;20091;-88
2022/08/24 00:41:48;;;;;;;3.28;2.25;;;;;;;104.25;100.00;61586.06;4991233;28;20037;-86
2022/08/24 00:44:17;;;;;;;2.72;2.28;;;;;;;104.25;100.00;61586.06;4998864;28;20050;-86
2022/08/24 00:46:54;;;;;;;4.80;2.08;;;;;;;104.25;100.00;61586.06;4997664;28;20037;-85
2022/08/24 00:49:26;;;;;;;2.95;1.92;;;;;;;104.25;100.00;61586.06;5013179;28;20505;-85
2022/08/24 00:52:02;;;;;;;3.67;2.22;;;;;;;-144.47;100.00;61586.06;5015260;28;20477;-85
2022/08/24 00:54:32;;;;;;;3.13;2.30;;;;;;;-144.47;100.00;61586.06;4990063;28;20048;-86
2022/08/24 00:57:01;;;;;;;4.00;2.10;;;;;;;187.31;100.00;61586.06;5011614;28;20506;-86
2022/08/24 00:59:35;;;;;;;2.05;1.85;;;;;;;-144.47;100.00;61586.06;5011666;28;20041;-85
2022/08/24 01:02:09;;;;;;;2.28;2.10;;;;;;;187.31;100.00;61586.06;4995158;28;20482;-87
2022/08/24 01:04:44;;;;;;;3.10;2.05;;;;;;;187.31;100.00;61586.06;5017053;28;20569;-86
2022/08/24 01:07:10;;;;;;;3.55;1.90;;;;;;;-144.47;100.00;61586.06;4988656;28;20041;-86
2022/08/24 01:09:36;;;;;;;2.35;2.15;;;;;;;187.31;100.00;61586.06;5017185;28;20106;-86
2022/08/24 01:12:02;;;;;;;2.38;2.17;;;;;;;187.31;100.00;61586.06;5036266;28;20026;-87
2022/08/24 01:14:29;;;;;;;7.45;2.13;;;;;;;187.31;100.00;61586.06;5034483;28;20099;-85
2022/08/24 01:19:45;;;;;;;3.35;2.15;;;;;;;-144.47;100.00;61586.06;5013963;28;20173;-85
2022/08/24 01:22:29;;;;;;;3.92;2.40;;;;;;;21.01;100.00;61586.06;5045625;28;20056;-87
2022/08/24 01:24:55;;;;;;;6.20;2.15;;;;;;;187.31;100.00;61586.06;5022138;28;20030;-87
2022/08/24 01:27:21;;;;;;;3.50;2.60;;;;;;;187.31;100.00;61586.06;5021199;28;20065;-86
2022/08/24 01:29:48;;;;;;;2.83;2.25;;;;;;;187.31;100.00;61586.06;5020264;28;20075;-85
2022/08/24 01:32:13;;;;;;;3.97;2.30;;;;;;;187.31;100.00;61586.06;5020493;28;20034;-86
2022/08/24 01:34:39;;;;;;;3.65;2.00;;;;;;;21.10;100.00;61586.06;5036900;28;20036;-84
2022/08/24 01:37:08;;;;;;;2.95;2.20;;;;;;;187.31;100.00;61586.06;5033855;28;20016;-84
2022/08/24 01:39:40;;;;;;;2.88;2.30;;;;;;;-144.47;100.00;61586.06;5011097;28;20030;-87
2022/08/24 01:42:06;;;;;;;3.20;2.50;;;;;;;187.31;100.00;61586.06;5010635;28;20040;-83
2022/08/24 01:44:35;;;;;;;5.00;2.38;;;;;;;187.31;100.00;61586.06;5016754;28;20037;-87
2022/08/24 01:47:03;;;;;;;2.90;2.70;;;;;;;187.31;100.00;61586.06;4999578;28;20038;-87
2022/08/24 01:49:31;;;;;;;4.03;2.70;;;;;;;187.31;100.00;61586.06;4995576;28;20030;-87
2022/08/24 01:51:58;;;;;;;9.20;2.40;;;;;;;-144.47;100.00;61586.06;4999104;28;20049;-87
2022/08/24 01:54:25;;;;;;;4.90;2.72;;;;;;;20.94;100.00;61586.06;4987078;28;20034;-86
2022/08/24 01:56:51;;;;;;;2.70;2.50;;;;;;;-144.47;100.00;61586.06;4993207;28;20030;-86
2022/08/24 01:59:18;;;;;;;3.22;2.70;;;;;;;-144.47;100.00;61586.06;4997163;28;20132;-86
2022/08/24 02:01:52;;;;;;;3.55;2.70;;;;;;;-144.47;100.00;61586.06;4998152;28;20034;-85
2022/08/24 02:04:18;;;;;;;3.25;2.72;;;;;;;-144.47;100.00;61586.06;4996676;28;20088;-86
2022/08/24 02:06:46;;;;;;;4.50;2.70;;;;;;;-144.47;100.00;61586.06;4998717;28;20049;-84
2022/08/24 02:09:12;;;;;;;9.75;2.90;;;;;;;-144.47;100.00;61586.06;4993722;28;20037;-83
2022/08/24 02:11:39;;;;;;;5.95;2.85;;;;;;;-144.47;100.00;61586.06;5010507;28;20037;-84
2022/08/24 02:14:05;;;;;;;4.55;2.88;;;;;;;-144.47;100.00;61586.06;5014173;28;20375;-83
2022/08/24 02:16:31;;;;;;;4.85;3.28;;;;;;;-144.47;100.00;61586.06;5014499;28;20037;-84
2022/08/24 02:18:57;;;;;;;3.05;2.75;;;;;;;-144.47;100.00;61586.06;5010303;28;20025;-82
2022/08/24 02:21:23;;;;;;;3.20;2.90;;;;;;;-144.47;100.00;61586.06;5013889;28;20687;-83
2022/08/24 02:23:50;;;;;;;4.60;2.90;;;;;;;-144.47;100.00;61586.06;5013968;28;20037;-83
2022/08/24 02:26:16;;;;;;;5.25;3.00;;;;;;;187.31;100.00;61586.06;4996477;28;20133;-85
2022/08/24 02:28:43;;;;;;;4.18;2.75;;;;;;;-144.47;100.00;61586.06;4997004;28;20033;-83
2022/08/24 02:31:12;;;;;;;3.08;2.88;;;;;;;-144.47;100.00;61586.06;5013920;28;20045;-83
2022/08/24 02:33:38;;;;;;;6.28;3.08;;;;;;;-144.47;100.00;61586.06;5010994;28;20099;-84
2022/08/24 02:36:05;;;;;;;5.10;3.05;;;;;;;-144.47;100.00;61586.06;4996812;28;20482;-84
2022/08/24 02:38:31;;;;;;;3.20;2.90;;;;;;;-144.47;100.00;61586.06;5015659;28;20697;-84
2022/08/24 02:40:57;;;;;;;3.17;2.88;;;;;;;-144.47;100.00;61586.06;5013984;28;20053;-84
2022/08/24 02:43:25;;;;;;;4.75;3.28;;;;;;;-144.47;100.00;61586.06;4995783;28;20096;-86
2022/08/24 02:45:51;;;;;;;5.53;2.83;;;;;;;-144.47;100.00;61586.06;4996114;28;20030;-85
2022/08/24 02:48:19;;;;;;;4.63;2.97;;;;;;;-144.47;100.00;61586.06;4996425;28;20021;-84
2022/08/24 02:50:47;;;;;;;3.70;3.00;;;;;;;19.94;100.00;81607.88;5013968;28;20040;-83
2022/08/24 02:53:15;;;;;;;3.55;2.80;;;;;;;-144.47;100.00;61586.06;4996063;28;20033;-84
2022/08/24 02:55:42;;;;;;;4.72;2.80;;;;;;;21.26;100.00;61586.06;4995012;28;20065;-84
2022/08/24 02:58:10;;;;;;;4.13;2.55;;;;;;;20.03;100.00;61586.06;5011013;28;20486;-84
2022/08/24 03:00:38;;;;;;;4.40;2.85;;;;;;;-144.47;100.00;61586.06;4995196;28;20052;-84
2022/08/24 03:03:06;;;;;;;3.92;3.25;;;;;;;-144.47;100.00;61586.06;5013992;28;20048;-83
2022/08/24 03:05:35;;;;;;;;;;;;;;;-144.47;100.00;61586.06;5014273;28;20116;-84
2022/08/24 03:08:01;;;;;;;5.35;2.90;;;;;;;-144.47;100.00;61586.06;5000563;28;19929;-84
2022/08/24 03:10:27;;;;;;;8.15;3.65;;;;;;;-144.47;100.00;61586.06;4996380;28;20064;-84
2022/08/24 03:12:53;;;;;;;5.03;3.17;;;;;;;19.97;100.00;61586.06;4976489;28;20393;-84
2022/08/24 03:15:23;;;;;;;3.90;3.15;;;;;;;-144.47;100.00;61586.06;4996187;28;20120;-82
2022/08/24 03:17:50;;;;;;;3.22;2.92;;;;;;;-144.47;100.00;61586.06;4996386;28;20029;-82
2022/08/24 03:20:19;;;;;;;4.22;3.08;;;;;;;-144.47;100.00;61586.06;4995974;28;20502;-81
2022/08/24 03:22:45;;;;;;;3.88;3.13;;;;;;;-144.47;100.00;61586.06;5013499;28;20038;-82
2022/08/24 03:25:12;;;;;;;3.17;2.72;;;;;;;-144.47;100.00;61586.06;4995436;28;20487;-82
2022/08/24 03:27:39;;;;;;;3.33;3.03;;;;;;;-144.47;100.00;61586.06;5020530;28;20492;-81
2022/08/24 03:30:09;;;;;;;2.95;2.75;;;;;;;-144.47;100.00;61586.06;5017024;28;20061;-83
2022/08/24 03:32:36;;;;;;;4.82;2.85;;;;;;;-144.47;100.00;61586.06;5017699;28;20025;-81
2022/08/24 03:35:03;;;;;;;3.40;3.03;;;;;;;-144.47;100.00;61586.06;5036194;28;20046;-81
2022/08/24 03:37:31;;;;;;;5.55;3.38;;;;;;;-144.47;100.00;61586.06;5022093;28;20081;-82
2022/08/24 03:39:57;;;;;;;5.10;2.80;;;;;;;19.97;100.00;61586.06;5023303;28;20026;-83
2022/08/24 03:42:23;;;;;;;2.92;2.70;;;;;;;-144.47;100.00;61586.06;5006523;28;20065;-83
2022/08/24 03:44:50;;;;;;;3.95;3.20;;;;;;;-144.47;100.00;61586.06;5019514;28;20030;-82
2022/08/24 03:47:16;;;;;;;3.40;3.10;;;;;;;-144.47;100.00;61586.06;4993126;28;20066;-82
2022/08/24 03:49:41;;;;;;;4.28;3.33;;;;;;;-144.47;100.00;61586.06;4996431;28;20032;-83
2022/08/24 03:52:07;;;;;;;3.40;3.15;;;;;;;-144.47;100.00;61586.06;4995186;28;20042;-82
2022/08/24 03:54:33;;;;;;;3.72;3.20;;;;;;;-144.47;100.00;61586.06;4994098;28;20030;-84
2022/08/24 03:57:00;;;;;;;4.15;2.92;;;;;;;187.31;100.00;61586.06;4993425;28;20045;-87
2022/08/24 03:59:26;;;;;;;5.78;2.95;;;;;;;-144.47;100.00;61586.06;4995194;28;20057;-87
2022/08/24 04:01:56;;;;;;;4.57;3.38;;;;;;;-144.47;100.00;61586.06;5012087;28;20466;-86
2022/08/24 04:04:21;;;;;;;4.90;3.55;;;;;;;19.97;100.00;61586.06;4995054;28;20037;-86
2022/08/24 04:06:47;;;;;;;3.90;3.35;;;;;;;19.97;100.00;61586.06;4993644;28;20054;-85
2022/08/24 04:09:15;;;;;;;4.10;3.28;;;;;;;187.31;100.00;61586.06;4994919;28;20058;-86
2022/08/24 04:11:44;;;;;;;5.77;3.17;;;;;;;19.97;100.00;61586.06;4990655;28;20034;-86
2022/08/24 04:14:11;;;;;;;7.63;3.58;;;;;;;-144.47;100.00;61586.06;5009690;28;20281;-85
2022/08/24 04:16:37;;;;;;;4.15;3.58;;;;;;;187.31;100.00;61586.06;4992650;28;20130;-86
2022/08/24 04:19:18;;;;;;;3.42;3.13;;;;;;;19.97;100.00;61586.06;5018353;28;20360;-83
2022/08/24 04:21:45;;;;;;;3.70;3.40;;;;;;;187.31;100.00;61586.06;4992286;28;20049;-85
2022/08/24 04:24:11;;;;;;;4.20;3.28;;;;;;;19.97;100.00;61586.06;4989797;28;20054;-84
2022/08/24 04:26:39;;;;;;;4.75;3.65;;;;;;;187.31;100.00;61586.06;4992838;28;20043;-84
2022/08/24 04:29:08;;;;;;;5.82;4.03;;;;;;;19.97;100.00;61586.06;4993641;28;20542;-84
2022/08/24 04:31:40;;;;;;;4.00;3.42;;;;;;;-144.47;100.00;61586.06;4991686;28;20042;-84
2022/08/24 04:34:06;;;;;;;4.20;3.80;;;;;;;-144.47;100.00;61586.06;4992046;28;20483;-84
2022/08/24 04:36:33;;;;;;;3.97;3.67;;;;;;;-144.47;100.00;61586.06;4989650;28;20066;-84
2022/08/24 04:38:59;;;;;;;3.38;3.08;;;;;;;-144.47;100.00;61586.06;4992243;28;20034;-83
2022/08/24 04:41:56;;;;;;;4.07;3.55;;;;;;;19.97;100.00;61586.06;4991328;28;20128;-83
2022/08/24 04:44:23;;;;;;;4.05;3.63;;;;;;;-144.47;100.00;61586.06;4991576;28;20042;-83
2022/08/24 04:46:48;;;;;;;4.70;3.58;;;;;;;19.97;100.00;61586.06;4993766;28;20475;-84
2022/08/24 04:49:14;;;;;;;3.83;3.53;;;;;;;19.97;100.00;61586.06;4988588;28;20417;-84
2022/08/24 04:51:40;;;;;;;4.63;3.63;;;;;;;19.97;100.00;61586.06;4991738;28;20034;-83
2022/08/24 04:54:07;;;;;;;4.40;3.83;;;;;;;-144.47;100.00;61586.06;4993027;28;20474;-83
2022/08/24 04:56:34;;;;;;;3.63;3.33;;;;;;;-144.47;100.00;61586.06;4991923;28;20042;-84
2022/08/24 04:59:00;;;;;;;5.25;3.22;;;;;;;-144.47;100.00;61586.06;5012469;28;20035;-83
2022/08/24 05:01:28;;;;;;;8.77;3.33;;;;;;;-144.47;100.00;61586.06;4989599;28;20053;-84
2022/08/24 05:03:55;;;;;;;4.43;3.30;;;;;;;-144.47;100.00;61586.06;4991564;28;20435;-83
2022/08/24 05:06:24;;;;;;;4.22;3.60;;;;;;;-144.47;100.00;61586.06;4995008;28;20096;-84
2022/08/24 05:08:51;;;;;;;4.25;3.67;;;;;;;-144.47;100.00;61586.06;4994453;28;20379;-83
2022/08/24 05:11:18;;;;;;;3.67;3.30;;;;;;;-144.47;100.00;61586.06;4991749;28;20080;-83
2022/08/24 05:13:45;;;;;;;5.28;3.92;;;;;;;-144.47;100.00;61586.06;4993771;28;20037;-84
2022/08/24 05:16:16;;;;;;;3.90;3.53;;;;;;;-144.47;100.00;61586.06;4994211;28;20030;-84
2022/08/24 05:18:42;;;;;;;5.20;3.35;;;;;;;-144.47;100.00;61586.06;4973825;28;20041;-82
2022/08/24 05:21:17;;;;;;;4.22;3.50;;;;;;;-144.47;100.00;61586.06;4993251;28;20038;-81
2022/08/24 05:23:43;;;;;;;3.97;3.13;;;;;;;19.97;100.00;61586.06;4993464;28;20097;-81
2022/08/24 05:26:15;;;;;;;4.68;3.13;;;;;;;187.31;100.00;61586.06;4993695;28;20045;-83
2022/08/24 05:28:42;;;;;;;6.35;3.63;;;;;;;19.64;100.00;61586.06;4994084;28;20356;-81
2022/08/24 05:31:15;;;;;;;4.57;4.18;;;;;;;19.97;100.00;61586.06;5011564;28;20499;-82
2022/08/24 05:33:41;;;;;;;4.20;3.80;;;;;;;19.97;100.00;61586.06;5018011;28;20099;-83
2022/08/24 05:36:33;;;;;;;4.03;3.50;;;;;;;19.97;100.00;61586.06;4994184;28;20033;-81
2022/08/24 05:39:00;;;;;;;5.38;3.88;;;;;;;19.97;100.00;61586.06;4996058;28;20030;-82
2022/08/24 05:41:27;;;;;;;8.55;4.13;;;;;;;-144.47;100.00;61586.06;4992303;28;20122;-81
2022/08/24 05:44:00;;;;;;;4.05;3.72;;;;;;;19.97;100.00;61586.06;4992020;28;20043;-81
2022/08/24 05:46:27;;;;;;;4.32;3.85;;;;;;;187.31;100.00;61586.06;4994560;28;20034;-82
2022/08/24 05:48:53;;;;;;;5.65;3.47;;;;;;;19.97;100.00;61586.06;4997232;28;20026;-84
2022/08/24 05:51:30;;;;;;;5.18;4.05;;;;;;;-144.47;100.00;61586.06;5033033;28;20188;-85
2022/08/24 05:54:03;;;;;;;4.65;3.95;;;;;;;19.97;100.00;61586.06;5004295;28;20022;-85
2022/08/24 05:56:34;;;;;;;4.32;3.80;;;;;;;19.97;100.00;61586.06;5035055;28;20041;-85
2022/08/24 05:59:01;;;;;;;5.28;3.67;;;;;;;19.34;100.00;61586.06;5033612;28;20033;-85
2022/08/24 06:01:27;;;;;;;8.27;4.38;;;;;;;19.97;100.00;61586.06;5018679;28;20033;-84
2022/08/24 06:03:56;;;;;;;3.85;3.22;;;;;;;-144.47;100.00;61586.06;5016122;28;20037;-86
2022/08/24 06:06:24;;;;;;;4.10;3.80;;;;;;;-144.47;100.00;61586.06;5042660;28;20070;-83
2022/08/24 06:08:53;;;;;;;6.07;4.15;;;;;;;-144.47;100.00;61586.06;5020516;28;20022;-83
2022/08/24 06:11:31;;;;;;;4.25;3.65;;;;;;;19.97;100.00;61586.06;5019041;28;20033;-85
2022/08/24 06:14:03;;;;;;;5.20;4.03;;;;;;;19.97;100.00;61586.06;5028068;28;20120;-82
2022/08/24 06:16:33;;;;;;;5.35;4.25;;;;;;;-144.47;100.00;61586.06;5020252;28;20042;-83
2022/08/24 06:18:59;;;;;;;6.43;4.00;;;;;;;-144.47;100.00;61586.06;5007883;28;20064;-81
2022/08/24 06:21:27;;;;;;;9.07;3.50;;;;;;;19.64;100.00;61586.06;5002031;28;20049;-80
2022/08/24 06:23:53;;;;;;;7.50;4.00;;;;;;;19.56;100.00;61586.06;4996026;28;20121;-82
2022/08/24 06:29:05;;;;;;;6.35;4.68;;;;;;;-144.47;100.00;61586.06;5014091;28;20144;-82
2022/08/24 06:31:39;;;;;;;3.55;3.25;;;;;;;-144.47;100.00;61586.06;4997895;28;20072;-82
2022/08/24 06:34:12;;;;;;;3.80;3.47;;;;;;;-144.47;100.00;61586.06;4992818;28;20030;-87
2022/08/24 06:36:38;;;;;;;3.92;3.60;;;;;;;19.97;100.00;61586.06;5019966;28;20471;-86
2022/08/24 06:39:05;;;;;;;4.32;3.92;;;;;;;19.97;100.00;61586.06;4995899;28;20026;-81
2022/08/24 06:41:31;;;;;;;4.78;3.95;;;;;;;19.97;100.00;61586.06;5010121;28;20041;-78
2022/08/24 06:43:57;;;;;;;10.00;3.85;;;;;;;-144.47;100.00;61586.06;5012117;28;20029;-79
2022/08/24 06:46:27;;;;;;;5.07;4.20;;;;;;;-144.47;100.00;61586.06;4977591;28;20034;-78
2022/08/24 06:48:54;;;;;;;6.88;3.50;;;;;;;21.26;100.00;61586.06;4998319;28;20397;-79
2022/08/24 06:51:21;;;;;;;3.85;3.55;;;;;;;21.26;100.00;61586.06;4997256;28;20128;-78
2022/08/24 06:53:49;;;;;;;8.57;3.85;;;;;;;-144.47;100.00;61586.06;4986716;28;20030;-78
2022/08/24 06:56:16;;;;;;;7.35;4.20;;;;;;;-144.47;100.00;61586.06;5001096;28;20438;-77
2022/08/24 06:58:42;;;;;;;3.75;3.45;;;;;;;-144.47;100.00;61586.06;5001544;28;20083;-77
2022/08/24 07:01:16;;;;;;;3.88;3.38;;;;;;;-144.47;100.00;61586.06;4985658;28;20030;-77
2022/08/24 07:03:43;;;;;;;6.93;3.40;;;;;;;-144.47;100.00;61586.06;4984682;28;20100;-77
2022/08/24 07:06:29;;;;;;;5.90;3.58;;;;;;;-144.47;100.00;61586.06;5012149;28;20072;-77
2022/08/24 07:08:58;;;;;;;9.13;4.18;;;;;;;-144.47;100.00;61586.06;5013006;28;20033;-76
2022/08/24 07:11:24;;;;;;;9.73;3.50;;;;;;;-144.47;100.00;61586.06;4993334;28;20038;-79
2022/08/24 07:13:51;;;;;;;4.88;3.33;;;;;;;-144.47;100.00;61586.06;4997451;28;20543;-78
2022/08/24 07:16:19;;;;;;;5.78;3.55;;;;;;;-144.47;100.00;61586.06;4993843;28;20030;-76
2022/08/24 07:18:51;;;;;;;7.93;3.60;;;;;;;104.25;100.00;61586.06;4999017;28;20065;-76
2022/08/24 07:21:19;;;;;;;5.90;3.35;;;;;;;104.25;100.00;61586.06;5007134;28;20088;-77
2022/08/24 07:23:47;;;;;;;3.42;3.08;;;;;;;104.25;100.00;61586.06;4995301;28;20060;-78
2022/08/24 07:26:24;;;;;;;3.95;3.60;;;;;;;104.25;100.00;61586.06;5006021;28;20509;-77
2022/08/24 07:29:14;;;;;;;3.80;3.33;;;;;;;104.25;100.00;61586.06;4978685;28;20040;-76
2022/08/24 07:31:45;;;;;;;6.60;3.08;;;;;;;187.31;100.00;61586.06;4989188;28;20125;-78
2022/08/24 07:34:28;;;;;;;5.15;3.22;;;;;;;104.25;100.00;61586.06;4994141;28;20034;-75
2022/08/24 07:36:59;;;;;;;5.40;3.20;;;;;;;104.25;100.00;61586.06;5006456;28;20126;-75
2022/08/24 07:39:26;;;;;;;4.35;3.03;;;;;;;104.25;100.00;61586.06;4994939;28;20049;-75
2022/08/24 07:41:52;;;;;;;4.75;3.15;;;;;;;-144.47;100.00;61586.06;4992165;28;20026;-76
2022/08/24 07:44:18;;;;;;;3.38;2.92;;;;;;;-144.47;100.00;61586.06;5005281;28;20046;-76
2022/08/24 07:46:44;;;;;;;3.35;3.03;;;;;;;-144.47;100.00;61586.06;4994648;28;20034;-74
2022/08/24 07:49:11;;;;;;;3.45;2.97;;;;;;;-144.47;100.00;61586.06;4992159;28;20033;-76
2022/08/24 07:51:38;;;;;;;4.60;2.60;;;;;;;-144.47;100.00;61586.06;4994848;28;20505;-75
2022/08/24 07:54:04;;;;;;;3.58;2.80;;;;;;;-144.47;100.00;61586.06;5012387;28;20116;-75
2022/08/24 07:56:39;;;;;;;4.43;3.08;;;;;;;-144.47;100.00;61586.06;5012666;28;20483;-78
2022/08/24 07:59:04;;;;;;;5.57;3.10;;;;;;;-144.47;100.00;61586.06;4998797;28;20482;-74
2022/08/24 08:01:32;;;;;;;3.53;2.95;;;;;;;-144.47;100.00;61586.06;4993865;28;20048;-76
2022/08/24 08:03:59;;;;;;;4.97;3.05;;;;;;;-144.47;100.00;61586.06;4996033;28;20037;-80
2022/08/24 08:06:25;;;;;;;3.60;2.80;;;;;;;-144.47;100.00;61586.06;5012775;28;20046;-79
2022/08/24 08:08:55;;;;;;;4.93;2.90;;;;;;;-144.47;100.00;61586.06;5022176;28;20102;-81
2022/08/24 08:11:21;;;;;;;3.25;2.40;;;;;;;-144.47;100.00;61586.06;4989342;28;20089;-78
2022/08/24 08:13:48;;;;;;;3.90;2.40;;;;;;;-144.47;100.00;61586.06;5011561;28;20044;-77
2022/08/24 08:16:14;;;;;;;5.55;2.55;;;;;;;-144.47;100.00;61586.06;5006399;28;20033;-76
2022/08/24 08:18:42;;;;;;;6.20;2.50;;;;;;;-144.47;100.00;61586.06;5009212;28;20092;-76
2022/08/24 08:24:13;;;;;;;4.50;2.40;;;;;;;-144.47;100.00;61586.06;4971356;28;20041;-77
2022/08/24 08:24:16;;;;;;;7.75;2.50;;;;;;;-144.47;100.00;61586.06;4987203;28;20052;-77
2022/08/24 08:26:50;;;;;;;4.95;2.30;;;;;;;-144.47;100.00;61586.06;4977632;28;20100;-75
2022/08/24 08:29:48;;;;;;;3.75;2.17;;;;;;;-144.47;100.00;61586.06;4969787;28;20074;-73
2022/08/24 08:32:16;;;;;;;5.55;2.30;;;;;;;-144.47;100.00;61586.06;4983063;28;20130;-74
2022/08/24 08:34:43;;;;;;;3.38;1.90;;;;;;;-144.47;100.00;61586.06;4986730;28;20030;-74
2022/08/24 08:37:09;;;;;;;2.38;2.10;;;;;;;-144.47;100.00;61586.06;4969901;28;20046;-75
2022/08/24 08:39:36;;;;;;;2.88;1.88;;;;;;;-144.47;100.00;61586.06;4967779;28;20527;-77
2022/08/24 08:42:35;;;;;;;3.15;2.00;;;;;;;-144.47;100.00;61586.06;4985744;28;20524;-81
2022/08/24 08:45:04;;;;;;;4.50;1.83;;;;;;;-144.47;100.00;61586.06;4969119;28;20085;-86
2022/08/24 08:47:56;;;;;;;2.50;2.00;;;;;;;-144.47;100.00;61586.06;4994255;28;20435;-85
2022/08/24 08:50:32;;;;;;;5.25;2.05;;;;;;;-144.47;100.00;61586.06;4993900;28;20038;-76
2022/08/24 08:53:15;;;;;;;3.08;2.17;;;;;;;-144.47;100.00;61586.06;4984174;28;20161;-74
2022/08/24 08:55:57;;;;;;;4.55;2.05;;;;;;;-144.47;100.00;61586.06;4968539;28;20128;-76
2022/08/24 08:58:47;;;;;;;4.13;2.20;;;;;;;-144.47;100.00;61586.06;4968047;28;20042;-77
2022/08/24 09:01:34;;;;;;;3.13;2.42;;;;;;;-144.47;100.00;61586.06;4982135;28;20049;-77
2022/08/24 09:04:22;;;;;;;3.80;1.95;;;;;;;-144.47;100.00;61586.06;4971256;28;20696;-77
2022/08/24 09:07:11;;;;;;;2.30;1.70;;;;;;;-144.47;100.00;61586.06;4968837;28;20065;-77
2022/08/24 09:10:20;;;;;;;1.60;1.50;;;;;;;-144.47;100.00;61586.06;4968789;28;20046;-75
2022/08/24 09:13:03;;;;;;;3.10;1.83;;;;;;;-144.47;100.00;61586.06;4987382;28;20576;-75
2022/08/24 09:15:41;;;;;;;2.85;1.60;;;;;;;-144.47;100.00;61586.06;4968862;28;20053;-74
2022/08/24 09:18:43;;;;;;;5.78;2.63;;;;;;;-144.47;100.00;61586.06;4987437;28;20049;-74
2022/08/24 09:21:37;;;;;;;2.33;1.88;;;;;;;-144.47;100.00;61586.06;4966173;28;20049;-74
2022/08/24 09:24:40;;;;;;;3.03;1.92;;;;;;;-144.47;100.00;61586.06;4970901;28;20392;-79
2022/08/24 09:27:59;;;;;;;3.05;1.90;;;;;;;-144.47;100.00;61586.06;4973569;28;20042;-79
2022/08/24 09:30:31;;;;;;;1.95;1.83;;;;;;;-144.47;100.00;61586.06;4928893;29;20043;-76
2022/08/24 09:33:19;;;;;;;6.82;1.90;;;;;;;62.74;100.00;61586.06;4926420;28;20040;-74
2022/08/24 09:35:51;;;;;;;2.10;1.50;;;;;;;62.74;100.00;61586.06;4924039;28;20169;-76
2022/08/24 09:38:23;;;;;;;2.15;1.45;;;;;;;104.25;100.00;61586.06;4929080;28;20048;-77
2022/08/24 09:41:13;;;;;;;2.85;1.77;;;;;;;42.00;100.00;61586.06;4928007;28;20035;-78
2022/08/24 09:43:59;;;;;;;2.72;1.63;;;;;;;25.87;100.00;61586.06;4926900;28;20139;-79
2022/08/24 09:46:52;;;;;;;2.83;1.70;;;;;;;62.74;100.00;61586.06;4924328;28;20043;-77
2022/08/24 09:49:24;;;;;;;2.25;2.00;;;;;;;25.85;100.00;61586.06;4925235;28;20869;-80
2022/08/24 09:51:58;;;;;;;2.83;2.10;;;;;;;104.25;100.00;61586.06;4950742;28;20030;-84
2022/08/24 09:55:12;;;;;;;4.32;2.08;;;;;;;62.74;100.00;61586.06;4952761;29;20066;-81
2022/08/24 09:58:02;;;;;;;1.90;1.80;;;;;;;42.00;100.00;61586.06;4945705;28;20055;-85
2022/08/24 10:00:33;;;;;;;2.42;1.70;;;;;;;104.25;100.00;61586.06;4972939;28;20041;-77
2022/08/24 10:03:05;;;;;;;6.03;2.30;;;;;;;104.25;100.00;61586.06;5012492;28;20707;-83
2022/08/24 10:06:02;;;;;;;2.80;2.20;;;;;;;42.00;100.00;61586.06;5019244;28;20037;-77
2022/08/24 10:08:33;;;;;;;7.22;1.88;;;;;;;25.91;100.00;61586.06;5011800;28;20056;-82
2022/08/24 10:11:24;;;;;;;2.42;2.17;;;;;;;62.74;100.00;61586.06;5013000;28;20483;-81
2022/08/24 10:14:05;;;;;;;11.55;2.35;;;;;;;62.74;100.00;61586.06;5010872;28;20042;-79
2022/08/24 10:17:08;;;;;;;3.00;2.20;;;;;;;62.74;100.00;61586.06;5008469;28;20030;-79
2022/08/24 10:20:03;;;;;;;3.28;1.85;;;;;;;62.74;100.00;61586.06;5005302;28;20038;-79
2022/08/24 10:22:48;;;;;;;1.75;1.65;;;;;;;62.74;100.00;61586.06;4994443;28;20153;-78
2022/08/24 10:25:48;;;;;;;4.55;1.92;;;;;;;62.74;100.00;61586.06;5005197;28;20037;-79
2022/08/24 10:28:32;;;;;;;3.17;1.70;;;;;;;42.00;100.00;61586.06;5006557;28;20045;-78
2022/08/24 10:31:04;;;;;;;1.90;1.80;;;;;;;-144.47;100.00;61586.06;5012313;28;20445;-83
2022/08/24 10:33:54;;;;;;;4.63;1.67;;;;;;;-144.47;100.00;61586.06;5004413;28;20042;-83
2022/08/24 10:37:06;;;;;;;2.03;1.83;;;;;;;-144.47;100.00;61586.06;5004439;28;20046;-79
2022/08/24 10:39:56;;;;;;;3.25;1.80;;;;;;;-144.47;100.00;61586.06;4995708;28;20045;-79
2022/08/24 10:46:17;;;;;;;1.88;1.58;;;;;;;-144.47;100.00;61586.06;5013464;28;20095;-83
2022/08/24 10:49:16;;;;;;;3.13;1.77;;;;;;;27.74;100.00;61586.06;5011917;28;20059;-78
2022/08/24 10:52:19;;;;;;;3.83;2.08;;;;;;;-144.47;100.00;61586.06;5006503;28;20041;-77
2022/08/24 10:54:46;;;;;;;2.20;1.90;;;;;;;187.31;100.00;61586.06;5005674;28;20045;-81
2022/08/24 10:57:37;;;;;;;3.00;2.25;;;;;;;-144.47;100.00;61586.06;5023679;28;20041;-79
2022/08/24 11:00:13;;;;;;;2.10;1.83;;;;;;;-144.47;100.00;61586.06;4657436;28;9999655;-79
2022/08/24 11:02:42;;;;;;;7.78;2.13;;;;;;;-144.47;100.00;61586.06;5007662;28;20121;-77
2022/08/24 11:05:13;;;;;;;3.10;2.15;;;;;;;-144.47;100.00;61586.06;5009455;28;20045;-76
2022/08/24 11:08:01;;;;;;;3.60;2.08;;;;;;;-144.47;100.00;61586.06;4998803;28;20054;-79
2022/08/24 11:10:38;;;;;;;3.45;2.03;;;;;;;-144.47;100.00;61586.06;4998679;28;20129;-76
2022/08/24 11:13:21;;;;;;;3.13;2.10;;;;;;;-144.47;100.00;61586.06;4991872;28;20052;-75
2022/08/24 11:15:52;;;;;;;3.05;1.98;;;;;;;-144.47;100.00;61586.06;4984880;28;20030;-76
2022/08/24 11:18:18;;;;;;;2.20;1.98;;;;;;;-144.47;100.00;61586.06;5000058;28;20045;-76
2022/08/24 11:20:47;;;;;;;2.40;1.60;;;;;;;-144.47;100.00;61586.06;4998195;28;20056;-76
2022/08/24 11:23:20;;;;;;;2.00;1.90;;;;;;;-144.47;100.00;61586.06;5003310;28;20065;-74
2022/08/24 11:26:01;;;;;;;2.08;1.85;;;;;;;27.37;100.00;61586.06;5000523;28;20030;-76
2022/08/24 11:28:37;;;;;;;2.72;1.90;;;;;;;-144.47;100.00;61586.06;4322765;28;10000616;-77
2022/08/24 11:31:04;;;;;;;3.65;1.92;;;;;;;-144.47;100.00;61586.06;5012545;28;20039;-75
2022/08/24 11:33:34;;;;;;;2.13;1.80;;;;;;;-144.47;100.00;61586.06;5013960;28;20034;-73
2022/08/24 11:36:01;;;;;;;3.92;1.77;;;;;;;-144.47;100.00;61586.06;4989489;28;20064;-74
2022/08/24 11:38:33;;;;;;;1.90;1.75;;;;;;;-144.47;100.00;61586.06;4992575;28;20532;-74
2022/08/24 11:41:07;;;;;;;3.60;1.98;;;;;;;-144.47;100.00;61586.06;5009207;28;20109;-74
2022/08/24 11:44:14;;;;;;;3.38;1.90;;;;;;;-144.47;100.00;61586.06;4991670;28;20037;-74
2022/08/24 11:46:45;;;;;;;2.22;1.98;;;;;;;-144.47;100.00;61586.06;5010239;28;20041;-74